Startpagina
METAR-TAF:

METAR-TAF

Vliegvelden :

Jabalpur, India

breedte: 23-10-54N, lengte: 80-03-31E, hoogte: 495 m

Actueel weer

Dit bericht is 6 uur en het 40 minuten geleden gemaakt, om 12:00 UTC
Weinig wind
Temperatuur 26°C
Vochtigheid 34%
Druk 1013 hPa
Zicht: 3000 m
Heiigheid

METAR: VAJB 181200Z 00000KT 3000 HZ NSC 26/09 Q1013

Tijdstip: 00:10 (18:40 UTC)


TAF: ontbreekt

Waarnemingen en weersverwachtingen van meer dan 4000 vliegvelden (METAR en TAF).

De beschikbare stations zijn de gele en rode punten op de kaart.

Ga met uw muis naar het station om de naam te zien.

Klik dan om waarnemingen en weersverwachtingen te zien.

kaart wijzigen: klik op de groene knoppen met een zwart kruis om in te zoomen, op de groene knop met een streepje om uit te zoomen of op de groene pijlen voor aangrenzende kaarten.


METAR-TAF: